Tegucigalpa, Honduras
Current Conditions -  °F | °C
As of 7:00 AM on Thursday 30 Oct 2014 (Local Time) from MHTG Reporting Station
Haze Haze  
Wind Chill: 68°   Ceiling: 2000
Heat Index: 68°   Visibility: 3mi
Dew Point: 68°   Wind: 5mph
Humidity: 100%   Direction: 360°N
Pressure: 30.03"   Gusts: NA
Location:  14.09°N, 87.22°W
Report Text: MHTG 301300Z 36004KT 5000 BR FEW006 BKN020 20/20 Q1017 A3003BECMG 9999
Loading
Personal Weather Stations






























Interactive Weather Map
Tropical Storm Tracking
New forecast layout! Learn more

10-Day Weather Forecast

Advertisements
Track Severe Weather on mobile